Bei Facebook empfehlenBei Twitter postenGoogle plusPinterest

Das Wetter im Erzgebirge am 11.05.2016

Wetter und Klima am 11.05.2016 Holzhau im Erzgebirge (630m ü.NN)
Letzte gemessene Temperatur und Uhrzeit der Messung23:45:00 Uhr8.30 °C
Temperatur (Maximum / Höchstwert) und Uhrzeit der Messung14:45:00 Uhr20.50 °C
Temperatur (Minimum / Tiefstwert) und Uhrzeit der Messung01:00:007.20 °C
Errechneter Absolutwert der Temperaturschwankungen zwischen Tmin und Tmax des Tages13.30 K
Errechnete Tagesmitteltemperatur13.12188 °C
Gesamt - Niederschlag des Tages (in flüssiger Form)0.00 Liter / m²
Luftdruck (Maximum / Höchstwert) und Zeitpunkt der Messung00:00:00 Uhr1009.60 hPa
Luftdruck (Minimum / Tiefstwert) und Zeitpunkt der Messung23:45:00 Uhr1003.70 hPa
Errechneter Absolutwert der Luftdruckschwankungen des Tages5.90 hPa
Höchste gemessene Windgeschwindigkeit und Uhrzeit der Messung23:45:00 Uhr0.00 km/h
Errechnete Windhäufigkeit in Relation zu den Messwerten des Tages0.00000 %
Niedrigste Windkühle (Windchill) und Zeitpunkt der Messung01:00:00 Uhr7.20 °C
Taupunkt (Maximum / Höchstwert) und Uhrzeit der Messung12:00:00 Uhr11.40 °C
Taupunkt (Minimum / Tiefstwert) und Uhrzeit der Messung01:00:004.90 °C
Anzahl der automatisch eingelesenen Messwerte 96

Detaillierte Wetter- und Klima- Messwerte für den 11.05.2016 in Holzhau im Erzgebirge (630m ü.NN)
ZeitTemperaturLuftdruckRel. LuftfeuchteWindWindrichtungWindchillTaupunktNiederschlag l/m²
23:45:008.30 °C1003.70 hPa83.00 %5.60 °C 
23:30:008.30 °C1003.70 hPa82.00 %5.40 °C 
23:15:008.40 °C1003.70 hPa82.00 %5.50 °C 
23:00:008.30 °C1003.90 hPa81.00 %5.20 °C 
22:45:008.40 °C1003.90 hPa80.00 %5.20 °C 
22:30:008.40 °C1004.00 hPa80.00 %5.20 °C 
22:15:008.60 °C1004.20 hPa79.00 %5.20 °C 
22:00:008.90 °C1004.00 hPa78.00 %5.30 °C 
21:45:009.30 °C1004.20 hPa77.00 %5.50 °C 
21:30:009.40 °C1004.30 hPa76.00 %5.40 °C 
21:15:009.60 °C1004.30 hPa75.00 %5.40 °C 
21:00:0010.10 °C1004.50 hPa74.00 %5.70 °C 
20:45:0010.50 °C1004.50 hPa72.00 %5.70 °C 
20:30:0011.10 °C1004.60 hPa70.00 %5.80 °C 
20:15:0011.90 °C1004.80 hPa68.00 %6.20 °C 
20:00:0013.00 °C1004.80 hPa65.00 %6.60 °C 
19:45:0013.90 °C1004.80 hPa63.00 %7.00 °C 
19:30:0014.40 °C1005.00 hPa62.00 %7.20 °C 
19:15:0015.10 °C1005.00 hPa60.00 %7.40 °C 
19:00:0016.10 °C1005.00 hPa58.00 %7.80 °C 
18:45:0016.80 °C1004.90 hPa57.00 %8.20 °C 
18:30:0017.10 °C1005.00 hPa57.00 %8.50 °C 
18:15:0017.60 °C1005.30 hPa56.00 %8.70 °C 
18:00:0017.90 °C1005.40 hPa56.00 %9.00 °C 
17:45:0018.40 °C1005.40 hPa54.00 %8.90 °C 
17:30:0019.10 °C1005.60 hPa53.00 %9.30 °C 
17:15:0019.40 °C1005.60 hPa52.00 %9.30 °C 
17:00:0019.90 °C1005.80 hPa52.00 %9.80 °C 
16:45:0020.30 °C1005.90 hPa51.00 %9.80 °C 
16:30:0019.80 °C1006.10 hPa52.00 %9.70 °C 
16:15:0019.80 °C1006.10 hPa50.00 %9.10 °C 
16:00:0020.10 °C1006.30 hPa52.00 %9.90 °C 
15:45:0019.60 °C1006.40 hPa51.00 %9.20 °C 
15:30:0019.20 °C1006.70 hPa54.00 %9.70 °C 
15:15:0019.30 °C1006.80 hPa52.00 %9.20 °C 
15:00:0020.40 °C1006.80 hPa51.00 %9.90 °C 
14:45:0020.50 °C1006.90 hPa53.00 %10.60 °C 
14:30:0020.40 °C1007.00 hPa53.00 %10.50 °C 
14:15:0020.40 °C1007.00 hPa55.00 %11.10 °C 
14:00:0019.80 °C1006.90 hPa56.00 %10.80 °C 
13:45:0019.40 °C1007.00 hPa57.00 %10.70 °C 
13:30:0018.90 °C1006.90 hPa58.00 %10.50 °C 
13:15:0018.90 °C1007.00 hPa59.00 %10.70 °C 
13:00:0018.50 °C1007.00 hPa60.00 %10.60 °C 
12:45:0017.80 °C1007.00 hPa62.00 %10.40 °C 
12:30:0017.30 °C1007.00 hPa64.00 %10.40 °C 
12:15:0017.20 °C1006.90 hPa65.00 %10.60 °C 
12:00:0017.60 °C1007.20 hPa67.00 %11.40 °C 
11:45:0017.00 °C1007.40 hPa69.00 %11.30 °C 
11:30:0015.80 °C1007.70 hPa70.00 %10.30 °C 
11:15:0016.10 °C1007.70 hPa70.00 %10.60 °C 
11:00:0015.60 °C1008.00 hPa72.00 %10.60 °C 
10:45:0014.80 °C1007.80 hPa74.00 %10.20 °C 
10:30:0014.20 °C1007.90 hPa74.00 %9.60 °C 
10:15:0014.30 °C1008.00 hPa75.00 %9.90 °C 
10:00:0014.10 °C1008.10 hPa76.00 %9.90 °C 
09:45:0013.90 °C1008.40 hPa77.00 %9.90 °C 
09:30:0014.20 °C1008.40 hPa78.00 %10.40 °C 
09:15:0013.60 °C1008.40 hPa79.00 %10.00 °C 
09:00:0013.40 °C1008.40 hPa80.00 %10.00 °C 
08:45:0013.60 °C1008.20 hPa82.00 %10.60 °C 
08:30:0013.20 °C1008.40 hPa83.00 %10.40 °C 
08:15:0012.80 °C1008.30 hPa84.00 %10.20 °C 
08:00:0012.60 °C1008.30 hPa86.00 %10.30 °C 
07:45:0012.10 °C1008.20 hPa87.00 %10.00 °C 
07:30:0011.50 °C1008.40 hPa88.00 %9.60 °C 
07:15:0011.30 °C1008.30 hPa89.00 %9.60 °C 
07:00:0010.60 °C1008.20 hPa90.00 %9.00 °C 
06:45:0010.30 °C1008.10 hPa90.00 %8.70 °C 
06:30:0010.10 °C1008.20 hPa90.00 %8.50 °C 
06:15:009.80 °C1008.40 hPa91.00 %8.40 °C 
06:00:009.50 °C1008.20 hPa91.00 %8.10 °C 
05:45:009.20 °C1008.60 hPa91.00 %7.80 °C 
05:30:009.00 °C1008.70 hPa90.00 %7.50 °C 
05:15:008.80 °C1008.60 hPa90.00 %7.30 °C 
05:00:008.70 °C1008.50 hPa90.00 %7.20 °C 
04:45:008.60 °C1008.60 hPa90.00 %7.10 °C 
04:30:008.70 °C1008.70 hPa89.00 %7.00 °C 
04:15:008.80 °C1008.50 hPa89.00 %7.10 °C 
04:00:008.70 °C1008.50 hPa89.00 %7.00 °C 
03:45:008.50 °C1008.50 hPa89.00 %6.80 °C 
03:30:008.30 °C1008.70 hPa88.00 %6.40 °C 
03:15:008.60 °C1008.70 hPa88.00 %6.70 °C 
03:00:008.70 °C1008.70 hPa88.00 %6.80 °C 
02:45:008.80 °C1008.90 hPa88.00 %6.90 °C 
02:30:008.90 °C1008.80 hPa88.00 %7.00 °C 
02:15:008.50 °C1008.70 hPa87.00 %6.50 °C 
02:00:008.60 °C1008.90 hPa87.00 %6.60 °C 
01:45:008.40 °C1008.90 hPa87.00 %6.40 °C 
01:30:007.90 °C1008.90 hPa86.00 %5.70 °C 
01:15:007.60 °C1009.10 hPa86.00 %5.40 °C 
01:00:007.20 °C1009.10 hPa85.00 %4.90 °C 
00:45:007.30 °C1009.40 hPa85.00 %5.00 °C 
00:30:007.80 °C1009.50 hPa84.00 %5.30 °C 
00:15:008.20 °C1009.40 hPa84.00 %5.70 °C 
00:00:008.10 °C1009.60 hPa83.00 %5.40 °C 

Permanenter Link zu dieser Seite: Wetter im Erzgebirge am 11.05.2016
Performance-Info: Die Erstellung der Seite / Statistik(en) / Tabelle(n) erforderte 5 Datenbankserver-Abfrage(n) und dauerte 125 Millisekunden. (Dieser Messwert ist von der Gesamt-Auslastung des Servers abhängig.)
Erzgebirge - Wetter | Erzgebirge - Wetter (Mobilgeräte) | Komplette Klimadatenbank